sensor_id;sensor_type;location;lat;lon;timestamp;temperature;humidity
12436;DHT22;6282;51.440;6.938;2023-07-28T00:01:43;17.80;99.90
12436;DHT22;6282;51.440;6.938;2023-07-28T00:04:10;17.30;99.90
12436;DHT22;6282;51.440;6.938;2023-07-28T00:06:37;17.60;99.90
12436;DHT22;6282;51.440;6.938;2023-07-28T00:09:04;17.40;99.90
12436;DHT22;6282;51.440;6.938;2023-07-28T00:11:30;17.20;99.90
12436;DHT22;6282;51.440;6.938;2023-07-28T00:13:57;17.70;99.90
12436;DHT22;6282;51.440;6.938;2023-07-28T00:16:25;16.80;99.90
12436;DHT22;6282;51.440;6.938;2023-07-28T00:18:52;17.90;99.90
12436;DHT22;6282;51.440;6.938;2023-07-28T00:21:19;17.60;99.90
12436;DHT22;6282;51.440;6.938;2023-07-28T00:23:46;17.40;99.90
12436;DHT22;6282;51.440;6.938;2023-07-28T00:26:13;17.80;99.90
12436;DHT22;6282;51.440;6.938;2023-07-28T00:31:07;17.70;99.90
12436;DHT22;6282;51.440;6.938;2023-07-28T00:33:36;17.70;99.90
12436;DHT22;6282;51.440;6.938;2023-07-28T00:36:03;17.50;99.90
12436;DHT22;6282;51.440;6.938;2023-07-28T00:38:30;17.70;99.90
12436;DHT22;6282;51.440;6.938;2023-07-28T00:40:57;17.80;99.90
12436;DHT22;6282;51.440;6.938;2023-07-28T00:43:24;17.70;99.90
12436;DHT22;6282;51.440;6.938;2023-07-28T00:45:52;17.70;99.90
12436;DHT22;6282;51.440;6.938;2023-07-28T00:48:19;17.60;99.90
12436;DHT22;6282;51.440;6.938;2023-07-28T00:50:50;17.60;99.90
12436;DHT22;6282;51.440;6.938;2023-07-28T00:53:18;17.40;99.90
12436;DHT22;6282;51.440;6.938;2023-07-28T00:55:46;17.40;99.90
12436;DHT22;6282;51.440;6.938;2023-07-28T00:58:13;17.50;99.90
12436;DHT22;6282;51.440;6.938;2023-07-28T01:00:40;17.30;99.90
12436;DHT22;6282;51.440;6.938;2023-07-28T01:03:07;17.70;99.90
12436;DHT22;6282;51.440;6.938;2023-07-28T01:05:41;17.50;99.90
12436;DHT22;6282;51.440;6.938;2023-07-28T01:08:15;17.60;99.90
12436;DHT22;6282;51.440;6.938;2023-07-28T01:10:43;17.50;99.90
12436;DHT22;6282;51.440;6.938;2023-07-28T01:13:11;17.70;99.90
12436;DHT22;6282;51.440;6.938;2023-07-28T01:18:05;16.90;99.90
12436;DHT22;6282;51.440;6.938;2023-07-28T01:20:34;17.50;99.90
12436;DHT22;6282;51.440;6.938;2023-07-28T01:23:23;17.60;99.90
12436;DHT22;6282;51.440;6.938;2023-07-28T01:26:03;17.50;99.90
12436;DHT22;6282;51.440;6.938;2023-07-28T01:28:34;17.70;99.90
12436;DHT22;6282;51.440;6.938;2023-07-28T01:31:02;17.50;99.90
12436;DHT22;6282;51.440;6.938;2023-07-28T01:33:29;17.60;99.90
12436;DHT22;6282;51.440;6.938;2023-07-28T01:35:56;17.50;99.90
12436;DHT22;6282;51.440;6.938;2023-07-28T01:38:24;17.50;99.90
12436;DHT22;6282;51.440;6.938;2023-07-28T01:40:50;17.80;99.90
12436;DHT22;6282;51.440;6.938;2023-07-28T01:43:17;17.80;99.90
12436;DHT22;6282;51.440;6.938;2023-07-28T01:45:45;17.70;99.90
12436;DHT22;6282;51.440;6.938;2023-07-28T01:48:12;17.50;99.90
12436;DHT22;6282;51.440;6.938;2023-07-28T01:50:39;17.00;99.90
12436;DHT22;6282;51.440;6.938;2023-07-28T01:55:33;17.50;99.90
12436;DHT22;6282;51.440;6.938;2023-07-28T01:58:01;17.70;99.90
12436;DHT22;6282;51.440;6.938;2023-07-28T02:00:28;17.50;99.90
12436;DHT22;6282;51.440;6.938;2023-07-28T02:02:56;17.60;99.90
12436;DHT22;6282;51.440;6.938;2023-07-28T02:05:24;17.70;99.90
12436;DHT22;6282;51.440;6.938;2023-07-28T02:07:51;17.70;99.90
12436;DHT22;6282;51.440;6.938;2023-07-28T02:10:18;17.80;99.90
12436;DHT22;6282;51.440;6.938;2023-07-28T02:12:45;17.60;99.90
12436;DHT22;6282;51.440;6.938;2023-07-28T02:17:39;17.40;99.90
12436;DHT22;6282;51.440;6.938;2023-07-28T02:20:08;17.40;99.90
12436;DHT22;6282;51.440;6.938;2023-07-28T02:25:06;18.30;99.90
12436;DHT22;6282;51.440;6.938;2023-07-28T02:27:33;17.30;99.90
12436;DHT22;6282;51.440;6.938;2023-07-28T02:30:00;17.50;99.90
12436;DHT22;6282;51.440;6.938;2023-07-28T02:32:27;17.80;99.90
12436;DHT22;6282;51.440;6.938;2023-07-28T02:34:55;17.70;99.90
12436;DHT22;6282;51.440;6.938;2023-07-28T02:37:23;16.70;99.90
12436;DHT22;6282;51.440;6.938;2023-07-28T02:39:50;17.60;99.90
12436;DHT22;6282;51.440;6.938;2023-07-28T02:42:17;17.70;99.90
12436;DHT22;6282;51.440;6.938;2023-07-28T02:47:11;17.60;99.90
12436;DHT22;6282;51.440;6.938;2023-07-28T02:52:06;17.70;99.90
12436;DHT22;6282;51.440;6.938;2023-07-28T02:54:34;17.70;99.90
12436;DHT22;6282;51.440;6.938;2023-07-28T02:57:01;17.70;99.90
12436;DHT22;6282;51.440;6.938;2023-07-28T03:04:23;17.90;99.90
12436;DHT22;6282;51.440;6.938;2023-07-28T03:09:16;17.60;99.90
12436;DHT22;6282;51.440;6.938;2023-07-28T03:11:45;17.80;99.90
12436;DHT22;6282;51.440;6.938;2023-07-28T03:14:12;17.60;99.90
12436;DHT22;6282;51.440;6.938;2023-07-28T03:16:39;17.90;99.90
12436;DHT22;6282;51.440;6.938;2023-07-28T03:21:33;17.80;99.90
12436;DHT22;6282;51.440;6.938;2023-07-28T03:24:00;18.00;99.90
12436;DHT22;6282;51.440;6.938;2023-07-28T03:26:27;17.30;99.90
12436;DHT22;6282;51.440;6.938;2023-07-28T03:28:55;17.90;99.90
12436;DHT22;6282;51.440;6.938;2023-07-28T03:31:22;17.30;99.90
12436;DHT22;6282;51.440;6.938;2023-07-28T03:33:49;17.80;99.90
12436;DHT22;6282;51.440;6.938;2023-07-28T03:36:16;17.80;99.90
12436;DHT22;6282;51.440;6.938;2023-07-28T03:38:44;18.00;99.90
12436;DHT22;6282;51.440;6.938;2023-07-28T03:41:11;17.80;99.90
12436;DHT22;6282;51.440;6.938;2023-07-28T03:43:39;17.60;99.90
12436;DHT22;6282;51.440;6.938;2023-07-28T03:46:07;17.80;99.90
12436;DHT22;6282;51.440;6.938;2023-07-28T03:48:34;17.60;99.90
12436;DHT22;6282;51.440;6.938;2023-07-28T03:51:01;18.00;99.90
12436;DHT22;6282;51.440;6.938;2023-07-28T03:53:28;17.80;99.90
12436;DHT22;6282;51.440;6.938;2023-07-28T04:00:51;17.90;99.90
12436;DHT22;6282;51.440;6.938;2023-07-28T04:03:20;18.10;99.90
12436;DHT22;6282;51.440;6.938;2023-07-28T04:05:47;17.70;99.90
12436;DHT22;6282;51.440;6.938;2023-07-28T04:10:41;17.80;99.90
12436;DHT22;6282;51.440;6.938;2023-07-28T04:13:08;17.80;99.90
12436;DHT22;6282;51.440;6.938;2023-07-28T04:15:35;18.20;99.90
12436;DHT22;6282;51.440;6.938;2023-07-28T04:18:02;18.10;99.90
12436;DHT22;6282;51.440;6.938;2023-07-28T04:20:30;17.90;99.90
12436;DHT22;6282;51.440;6.938;2023-07-28T04:22:57;19.10;99.90
12436;DHT22;6282;51.440;6.938;2023-07-28T04:25:24;18.00;99.90
12436;DHT22;6282;51.440;6.938;2023-07-28T04:27:51;18.00;99.90
12436;DHT22;6282;51.440;6.938;2023-07-28T04:30:18;18.10;99.90
12436;DHT22;6282;51.440;6.938;2023-07-28T04:32:44;18.00;99.90
12436;DHT22;6282;51.440;6.938;2023-07-28T04:35:12;17.80;99.90
12436;DHT22;6282;51.440;6.938;2023-07-28T04:37:40;18.20;99.90
12436;DHT22;6282;51.440;6.938;2023-07-28T04:40:08;18.00;99.90
12436;DHT22;6282;51.440;6.938;2023-07-28T04:45:03;18.20;99.90
12436;DHT22;6282;51.440;6.938;2023-07-28T04:47:30;17.90;99.90
12436;DHT22;6282;51.440;6.938;2023-07-28T04:52:24;18.30;99.90
12436;DHT22;6282;51.440;6.938;2023-07-28T04:54:52;17.90;99.90
12436;DHT22;6282;51.440;6.938;2023-07-28T04:57:19;17.50;99.90
12436;DHT22;6282;51.440;6.938;2023-07-28T04:59:46;18.20;99.90
12436;DHT22;6282;51.440;6.938;2023-07-28T05:07:07;19.30;99.90
12436;DHT22;6282;51.440;6.938;2023-07-28T05:09:34;18.20;99.90
12436;DHT22;6282;51.440;6.938;2023-07-28T05:12:02;18.50;99.90
12436;DHT22;6282;51.440;6.938;2023-07-28T05:21:51;18.00;99.90
12436;DHT22;6282;51.440;6.938;2023-07-28T05:26:45;18.20;99.90
12436;DHT22;6282;51.440;6.938;2023-07-28T05:29:13;18.30;99.90
12436;DHT22;6282;51.440;6.938;2023-07-28T05:36:34;18.40;99.90
12436;DHT22;6282;51.440;6.938;2023-07-28T05:39:01;18.60;99.90
12436;DHT22;6282;51.440;6.938;2023-07-28T05:41:28;18.60;99.90
12436;DHT22;6282;51.440;6.938;2023-07-28T05:43:55;18.70;99.90
12436;DHT22;6282;51.440;6.938;2023-07-28T05:46:23;18.60;99.90
12436;DHT22;6282;51.440;6.938;2023-07-28T05:48:50;18.40;99.90
12436;DHT22;6282;51.440;6.938;2023-07-28T05:51:16;18.40;99.90
12436;DHT22;6282;51.440;6.938;2023-07-28T05:53:43;18.70;99.90
12436;DHT22;6282;51.440;6.938;2023-07-28T05:56:10;18.50;99.90
12436;DHT22;6282;51.440;6.938;2023-07-28T05:58:37;18.50;99.90
12436;DHT22;6282;51.440;6.938;2023-07-28T06:01:04;18.20;99.90
12436;DHT22;6282;51.440;6.938;2023-07-28T06:03:32;18.40;99.90
12436;DHT22;6282;51.440;6.938;2023-07-28T06:05:59;18.60;99.90
12436;DHT22;6282;51.440;6.938;2023-07-28T06:08:25;18.80;99.90
12436;DHT22;6282;51.440;6.938;2023-07-28T06:13:19;18.00;99.90
12436;DHT22;6282;51.440;6.938;2023-07-28T06:15:46;18.30;99.90
12436;DHT22;6282;51.440;6.938;2023-07-28T06:18:13;18.50;99.90
12436;DHT22;6282;51.440;6.938;2023-07-28T06:20:43;18.80;99.90
12436;DHT22;6282;51.440;6.938;2023-07-28T06:23:11;18.60;99.90
12436;DHT22;6282;51.440;6.938;2023-07-28T06:25:37;18.70;99.90
12436;DHT22;6282;51.440;6.938;2023-07-28T06:28:09;18.00;99.90
12436;DHT22;6282;51.440;6.938;2023-07-28T06:30:36;18.80;99.90
12436;DHT22;6282;51.440;6.938;2023-07-28T06:33:03;18.70;99.90
12436;DHT22;6282;51.440;6.938;2023-07-28T06:37:59;18.60;99.90
12436;DHT22;6282;51.440;6.938;2023-07-28T06:40:26;18.70;99.90
12436;DHT22;6282;51.440;6.938;2023-07-28T06:42:53;18.80;99.90
12436;DHT22;6282;51.440;6.938;2023-07-28T06:47:51;18.60;99.90
12436;DHT22;6282;51.440;6.938;2023-07-28T06:50:18;18.80;99.90
12436;DHT22;6282;51.440;6.938;2023-07-28T06:55:15;18.70;99.90
12436;DHT22;6282;51.440;6.938;2023-07-28T07:00:10;18.90;99.90
12436;DHT22;6282;51.440;6.938;2023-07-28T07:02:37;18.70;99.90
12436;DHT22;6282;51.440;6.938;2023-07-28T07:05:04;19.50;99.90
12436;DHT22;6282;51.440;6.938;2023-07-28T07:07:32;19.20;99.90
12436;DHT22;6282;51.440;6.938;2023-07-28T07:09:59;19.10;99.90
12436;DHT22;6282;51.440;6.938;2023-07-28T07:12:27;19.20;99.90
12436;DHT22;6282;51.440;6.938;2023-07-28T07:14:54;19.00;99.90
12436;DHT22;6282;51.440;6.938;2023-07-28T07:17:21;19.30;99.90
12436;DHT22;6282;51.440;6.938;2023-07-28T07:19:47;19.30;99.90
12436;DHT22;6282;51.440;6.938;2023-07-28T07:22:14;19.30;99.90
12436;DHT22;6282;51.440;6.938;2023-07-28T07:24:41;19.10;99.90
12436;DHT22;6282;51.440;6.938;2023-07-28T07:27:08;19.60;99.90
12436;DHT22;6282;51.440;6.938;2023-07-28T07:29:37;19.60;99.90
12436;DHT22;6282;51.440;6.938;2023-07-28T07:32:05;20.10;99.90
12436;DHT22;6282;51.440;6.938;2023-07-28T07:34:33;19.50;99.90
12436;DHT22;6282;51.440;6.938;2023-07-28T07:37:00;20.10;99.90
12436;DHT22;6282;51.440;6.938;2023-07-28T07:39:27;20.10;99.90
12436;DHT22;6282;51.440;6.938;2023-07-28T07:41:54;19.70;99.90
12436;DHT22;6282;51.440;6.938;2023-07-28T07:44:20;20.00;99.90
12436;DHT22;6282;51.440;6.938;2023-07-28T07:46:50;19.90;99.90
12436;DHT22;6282;51.440;6.938;2023-07-28T07:49:18;20.20;99.90
12436;DHT22;6282;51.440;6.938;2023-07-28T07:51:44;19.90;99.90
12436;DHT22;6282;51.440;6.938;2023-07-28T07:54:11;19.90;99.90
12436;DHT22;6282;51.440;6.938;2023-07-28T07:56:41;20.40;99.90
12436;DHT22;6282;51.440;6.938;2023-07-28T07:59:08;20.20;99.90
12436;DHT22;6282;51.440;6.938;2023-07-28T08:04:04;19.80;99.90
12436;DHT22;6282;51.440;6.938;2023-07-28T08:06:30;20.40;99.90
12436;DHT22;6282;51.440;6.938;2023-07-28T08:08:58;20.20;99.90
12436;DHT22;6282;51.440;6.938;2023-07-28T08:11:25;20.30;99.90
12436;DHT22;6282;51.440;6.938;2023-07-28T08:13:52;20.10;99.90
12436;DHT22;6282;51.440;6.938;2023-07-28T08:16:19;20.30;99.90
12436;DHT22;6282;51.440;6.938;2023-07-28T08:21:15;20.20;99.90
12436;DHT22;6282;51.440;6.938;2023-07-28T08:23:43;20.40;99.90
12436;DHT22;6282;51.440;6.938;2023-07-28T08:26:10;20.30;99.90
12436;DHT22;6282;51.440;6.938;2023-07-28T08:28:37;20.60;99.90
12436;DHT22;6282;51.440;6.938;2023-07-28T08:31:04;20.20;99.90
12436;DHT22;6282;51.440;6.938;2023-07-28T08:33:31;20.60;99.90
12436;DHT22;6282;51.440;6.938;2023-07-28T08:35:58;21.30;99.90
12436;DHT22;6282;51.440;6.938;2023-07-28T08:38:26;21.40;99.90
12436;DHT22;6282;51.440;6.938;2023-07-28T08:40:53;21.20;99.90
12436;DHT22;6282;51.440;6.938;2023-07-28T08:43:20;21.80;99.90
12436;DHT22;6282;51.440;6.938;2023-07-28T08:45:47;21.00;99.90
12436;DHT22;6282;51.440;6.938;2023-07-28T08:48:14;20.90;99.90
12436;DHT22;6282;51.440;6.938;2023-07-28T08:50:41;20.60;99.90
12436;DHT22;6282;51.440;6.938;2023-07-28T08:53:08;21.00;99.90
12436;DHT22;6282;51.440;6.938;2023-07-28T08:55:36;20.60;99.90
12436;DHT22;6282;51.440;6.938;2023-07-28T08:58:16;20.80;99.90
12436;DHT22;6282;51.440;6.938;2023-07-28T09:00:44;21.40;99.90
12436;DHT22;6282;51.440;6.938;2023-07-28T09:03:14;20.70;99.90
12436;DHT22;6282;51.440;6.938;2023-07-28T09:05:42;21.10;99.90
12436;DHT22;6282;51.440;6.938;2023-07-28T09:10:43;21.90;99.90
12436;DHT22;6282;51.440;6.938;2023-07-28T09:13:11;21.90;99.90
12436;DHT22;6282;51.440;6.938;2023-07-28T09:15:38;22.10;99.90
12436;DHT22;6282;51.440;6.938;2023-07-28T09:18:08;22.20;99.90
12436;DHT22;6282;51.440;6.938;2023-07-28T09:20:38;21.80;99.90
12436;DHT22;6282;51.440;6.938;2023-07-28T09:23:06;21.80;99.90
12436;DHT22;6282;51.440;6.938;2023-07-28T09:25:34;22.20;99.90
12436;DHT22;6282;51.440;6.938;2023-07-28T09:28:02;21.80;99.90
12436;DHT22;6282;51.440;6.938;2023-07-28T09:30:45;21.70;99.90
12436;DHT22;6282;51.440;6.938;2023-07-28T09:33:13;21.30;99.90
12436;DHT22;6282;51.440;6.938;2023-07-28T09:35:49;21.70;99.90
12436;DHT22;6282;51.440;6.938;2023-07-28T09:38:18;22.60;99.90
12436;DHT22;6282;51.440;6.938;2023-07-28T09:40:45;23.10;99.90
12436;DHT22;6282;51.440;6.938;2023-07-28T09:43:15;23.80;99.90
12436;DHT22;6282;51.440;6.938;2023-07-28T09:45:42;23.90;99.90
12436;DHT22;6282;51.440;6.938;2023-07-28T09:48:11;23.90;99.90
12436;DHT22;6282;51.440;6.938;2023-07-28T09:50:41;23.40;99.90
12436;DHT22;6282;51.440;6.938;2023-07-28T09:53:09;23.40;99.90
12436;DHT22;6282;51.440;6.938;2023-07-28T09:55:39;22.90;99.90
12436;DHT22;6282;51.440;6.938;2023-07-28T09:58:09;22.40;99.90
12436;DHT22;6282;51.440;6.938;2023-07-28T10:00:39;22.40;99.90
12436;DHT22;6282;51.440;6.938;2023-07-28T10:03:06;21.80;99.90
12436;DHT22;6282;51.440;6.938;2023-07-28T10:05:34;22.00;99.90
12436;DHT22;6282;51.440;6.938;2023-07-28T10:08:03;22.30;99.90
12436;DHT22;6282;51.440;6.938;2023-07-28T10:10:31;22.50;99.90
12436;DHT22;6282;51.440;6.938;2023-07-28T10:12:58;22.40;99.90
12436;DHT22;6282;51.440;6.938;2023-07-28T10:15:28;22.60;99.90
12436;DHT22;6282;51.440;6.938;2023-07-28T10:17:58;21.90;99.90
12436;DHT22;6282;51.440;6.938;2023-07-28T10:20:30;21.70;99.90
12436;DHT22;6282;51.440;6.938;2023-07-28T10:23:08;22.40;99.90
12436;DHT22;6282;51.440;6.938;2023-07-28T10:25:38;21.80;99.90
12436;DHT22;6282;51.440;6.938;2023-07-28T10:28:06;22.50;99.90
12436;DHT22;6282;51.440;6.938;2023-07-28T10:30:38;22.20;99.90
12436;DHT22;6282;51.440;6.938;2023-07-28T10:33:07;22.20;99.90
12436;DHT22;6282;51.440;6.938;2023-07-28T10:35:52;22.10;99.90
12436;DHT22;6282;51.440;6.938;2023-07-28T10:38:32;22.60;99.90
12436;DHT22;6282;51.440;6.938;2023-07-28T10:41:07;22.50;99.90
12436;DHT22;6282;51.440;6.938;2023-07-28T10:43:35;22.80;99.90
12436;DHT22;6282;51.440;6.938;2023-07-28T10:46:03;22.40;99.90
12436;DHT22;6282;51.440;6.938;2023-07-28T10:48:31;22.60;99.90
12436;DHT22;6282;51.440;6.938;2023-07-28T10:50:58;22.70;99.90
12436;DHT22;6282;51.440;6.938;2023-07-28T10:53:26;22.50;99.90
12436;DHT22;6282;51.440;6.938;2023-07-28T10:55:53;22.90;99.90
12436;DHT22;6282;51.440;6.938;2023-07-28T10:58:20;23.00;99.90
12436;DHT22;6282;51.440;6.938;2023-07-28T11:00:46;23.10;99.90
12436;DHT22;6282;51.440;6.938;2023-07-28T11:03:14;23.20;99.90
12436;DHT22;6282;51.440;6.938;2023-07-28T11:05:42;23.50;99.90
12436;DHT22;6282;51.440;6.938;2023-07-28T11:08:10;23.90;99.90
12436;DHT22;6282;51.440;6.938;2023-07-28T11:10:37;22.80;99.90
12436;DHT22;6282;51.440;6.938;2023-07-28T11:13:07;23.60;99.90
12436;DHT22;6282;51.440;6.938;2023-07-28T11:15:34;23.40;99.90
12436;DHT22;6282;51.440;6.938;2023-07-28T11:18:03;23.30;99.90
12436;DHT22;6282;51.440;6.938;2023-07-28T11:20:31;22.70;99.90
12436;DHT22;6282;51.440;6.938;2023-07-28T11:23:01;23.00;99.90
12436;DHT22;6282;51.440;6.938;2023-07-28T11:25:29;23.00;99.90
12436;DHT22;6282;51.440;6.938;2023-07-28T11:27:56;23.20;99.90
12436;DHT22;6282;51.440;6.938;2023-07-28T11:30:24;23.00;99.90
12436;DHT22;6282;51.440;6.938;2023-07-28T11:32:52;23.00;99.90
12436;DHT22;6282;51.440;6.938;2023-07-28T11:35:20;22.80;99.90
12436;DHT22;6282;51.440;6.938;2023-07-28T11:37:49;22.80;99.90
12436;DHT22;6282;51.440;6.938;2023-07-28T11:40:20;22.90;99.90
12436;DHT22;6282;51.440;6.938;2023-07-28T11:42:50;22.60;99.90
12436;DHT22;6282;51.440;6.938;2023-07-28T11:45:18;22.20;99.90
12436;DHT22;6282;51.440;6.938;2023-07-28T11:47:54;21.70;99.90
12436;DHT22;6282;51.440;6.938;2023-07-28T11:50:26;21.20;99.90
12436;DHT22;6282;51.440;6.938;2023-07-28T11:52:53;20.90;99.90
12436;DHT22;6282;51.440;6.938;2023-07-28T11:55:21;21.00;99.90
12436;DHT22;6282;51.440;6.938;2023-07-28T11:57:49;21.00;99.90
12436;DHT22;6282;51.440;6.938;2023-07-28T12:00:16;21.00;99.90
12436;DHT22;6282;51.440;6.938;2023-07-28T12:02:44;21.80;99.90
12436;DHT22;6282;51.440;6.938;2023-07-28T12:05:15;21.90;99.90
12436;DHT22;6282;51.440;6.938;2023-07-28T12:07:47;22.30;99.90
12436;DHT22;6282;51.440;6.938;2023-07-28T12:10:14;22.50;99.90
12436;DHT22;6282;51.440;6.938;2023-07-28T12:12:45;22.40;99.90
12436;DHT22;6282;51.440;6.938;2023-07-28T12:15:21;22.80;99.90
12436;DHT22;6282;51.440;6.938;2023-07-28T12:18:09;22.80;99.90
12436;DHT22;6282;51.440;6.938;2023-07-28T12:20:37;22.70;99.90
12436;DHT22;6282;51.440;6.938;2023-07-28T12:23:05;22.90;99.90
12436;DHT22;6282;51.440;6.938;2023-07-28T12:25:33;22.10;99.90
12436;DHT22;6282;51.440;6.938;2023-07-28T12:28:01;22.50;99.90
12436;DHT22;6282;51.440;6.938;2023-07-28T12:30:28;22.80;99.90
12436;DHT22;6282;51.440;6.938;2023-07-28T12:32:55;22.40;99.90
12436;DHT22;6282;51.440;6.938;2023-07-28T12:35:23;22.70;99.90
12436;DHT22;6282;51.440;6.938;2023-07-28T12:37:50;23.10;99.90
12436;DHT22;6282;51.440;6.938;2023-07-28T12:40:18;23.30;99.90
12436;DHT22;6282;51.440;6.938;2023-07-28T12:42:45;23.40;99.90
12436;DHT22;6282;51.440;6.938;2023-07-28T12:45:14;23.30;99.90
12436;DHT22;6282;51.440;6.938;2023-07-28T12:47:42;23.00;99.90
12436;DHT22;6282;51.440;6.938;2023-07-28T12:50:10;23.40;99.90
12436;DHT22;6282;51.440;6.938;2023-07-28T12:52:37;23.10;99.90
12436;DHT22;6282;51.440;6.938;2023-07-28T12:55:04;23.00;99.90
12436;DHT22;6282;51.440;6.938;2023-07-28T12:57:31;22.70;99.90
12436;DHT22;6282;51.440;6.938;2023-07-28T12:59:58;22.50;99.90
12436;DHT22;6282;51.440;6.938;2023-07-28T13:02:26;22.70;99.90
12436;DHT22;6282;51.440;6.938;2023-07-28T13:04:53;22.90;99.90
12436;DHT22;6282;51.440;6.938;2023-07-28T13:07:20;22.80;99.90
12436;DHT22;6282;51.440;6.938;2023-07-28T13:09:48;22.90;99.90
12436;DHT22;6282;51.440;6.938;2023-07-28T13:12:15;23.40;99.90
12436;DHT22;6282;51.440;6.938;2023-07-28T13:17:09;23.90;99.90
12436;DHT22;6282;51.440;6.938;2023-07-28T13:19:38;23.60;99.90
12436;DHT22;6282;51.440;6.938;2023-07-28T13:22:05;23.40;99.90
12436;DHT22;6282;51.440;6.938;2023-07-28T13:24:32;23.80;99.90
12436;DHT22;6282;51.440;6.938;2023-07-28T13:26:59;23.70;99.90
12436;DHT22;6282;51.440;6.938;2023-07-28T13:29:25;24.30;99.90
12436;DHT22;6282;51.440;6.938;2023-07-28T13:31:57;24.40;99.90
12436;DHT22;6282;51.440;6.938;2023-07-28T13:34:24;24.30;99.90
12436;DHT22;6282;51.440;6.938;2023-07-28T13:36:52;24.00;99.90
12436;DHT22;6282;51.440;6.938;2023-07-28T13:39:19;23.70;99.90
12436;DHT22;6282;51.440;6.938;2023-07-28T13:41:46;24.20;99.90
12436;DHT22;6282;51.440;6.938;2023-07-28T13:44:13;23.90;99.90
12436;DHT22;6282;51.440;6.938;2023-07-28T13:46:40;23.70;99.90
12436;DHT22;6282;51.440;6.938;2023-07-28T13:49:07;23.70;99.90
12436;DHT22;6282;51.440;6.938;2023-07-28T13:51:34;23.90;99.90
12436;DHT22;6282;51.440;6.938;2023-07-28T13:54:03;24.10;99.90
12436;DHT22;6282;51.440;6.938;2023-07-28T13:56:30;24.10;99.90
12436;DHT22;6282;51.440;6.938;2023-07-28T13:58:57;24.00;99.90
12436;DHT22;6282;51.440;6.938;2023-07-28T14:01:24;23.40;99.90
12436;DHT22;6282;51.440;6.938;2023-07-28T14:03:51;23.50;99.90
12436;DHT22;6282;51.440;6.938;2023-07-28T14:06:17;24.00;99.90
12436;DHT22;6282;51.440;6.938;2023-07-28T14:08:44;23.90;99.90
12436;DHT22;6282;51.440;6.938;2023-07-28T14:11:12;23.70;99.90
12436;DHT22;6282;51.440;6.938;2023-07-28T14:13:39;24.00;99.90
12436;DHT22;6282;51.440;6.938;2023-07-28T14:16:06;24.20;99.90
12436;DHT22;6282;51.440;6.938;2023-07-28T14:28:25;23.20;99.90
12436;DHT22;6282;51.440;6.938;2023-07-28T14:30:51;23.60;99.90
12436;DHT22;6282;51.440;6.938;2023-07-28T14:33:18;23.20;99.90
12436;DHT22;6282;51.440;6.938;2023-07-28T14:35:47;23.20;99.90
12436;DHT22;6282;51.440;6.938;2023-07-28T14:38:14;23.00;99.90
12436;DHT22;6282;51.440;6.938;2023-07-28T14:40:42;22.90;99.90
12436;DHT22;6282;51.440;6.938;2023-07-28T14:43:12;23.40;99.90
12436;DHT22;6282;51.440;6.938;2023-07-28T14:45:40;22.90;99.90
12436;DHT22;6282;51.440;6.938;2023-07-28T14:50:34;23.20;99.90
12436;DHT22;6282;51.440;6.938;2023-07-28T14:53:02;22.90;99.90
12436;DHT22;6282;51.440;6.938;2023-07-28T14:55:29;23.30;99.90
12436;DHT22;6282;51.440;6.938;2023-07-28T14:57:55;23.10;99.90
12436;DHT22;6282;51.440;6.938;2023-07-28T15:02:51;22.90;99.90
12436;DHT22;6282;51.440;6.938;2023-07-28T15:05:18;23.30;99.90
12436;DHT22;6282;51.440;6.938;2023-07-28T15:07:44;23.00;99.90
12436;DHT22;6282;51.440;6.938;2023-07-28T15:12:39;23.10;99.90
12436;DHT22;6282;51.440;6.938;2023-07-28T15:15:07;22.50;99.90
12436;DHT22;6282;51.440;6.938;2023-07-28T15:17:34;22.70;99.90
12436;DHT22;6282;51.440;6.938;2023-07-28T15:20:02;22.50;99.90
12436;DHT22;6282;51.440;6.938;2023-07-28T15:22:29;22.80;99.90
12436;DHT22;6282;51.440;6.938;2023-07-28T15:24:59;22.20;99.90
12436;DHT22;6282;51.440;6.938;2023-07-28T15:32:20;21.90;99.90
12436;DHT22;6282;51.440;6.938;2023-07-28T15:34:47;22.10;99.90
12436;DHT22;6282;51.440;6.938;2023-07-28T15:37:15;22.00;99.90
12436;DHT22;6282;51.440;6.938;2023-07-28T15:39:42;22.20;99.90
12436;DHT22;6282;51.440;6.938;2023-07-28T15:42:09;22.30;99.90
12436;DHT22;6282;51.440;6.938;2023-07-28T15:44:36;22.10;99.90
12436;DHT22;6282;51.440;6.938;2023-07-28T15:47:03;22.10;99.90
12436;DHT22;6282;51.440;6.938;2023-07-28T15:49:29;22.60;99.90
12436;DHT22;6282;51.440;6.938;2023-07-28T15:54:25;22.40;99.90
12436;DHT22;6282;51.440;6.938;2023-07-28T15:56:52;23.00;99.90
12436;DHT22;6282;51.440;6.938;2023-07-28T15:59:18;22.70;99.90
12436;DHT22;6282;51.440;6.938;2023-07-28T16:04:13;22.30;99.90
12436;DHT22;6282;51.440;6.938;2023-07-28T16:06:40;22.00;99.90
12436;DHT22;6282;51.440;6.938;2023-07-28T16:09:06;22.50;99.90
12436;DHT22;6282;51.440;6.938;2023-07-28T16:11:34;22.70;99.90
12436;DHT22;6282;51.440;6.938;2023-07-28T16:14:01;23.10;99.90
12436;DHT22;6282;51.440;6.938;2023-07-28T16:18:55;22.70;99.90
12436;DHT22;6282;51.440;6.938;2023-07-28T16:21:22;22.50;99.90
12436;DHT22;6282;51.440;6.938;2023-07-28T16:23:49;22.30;99.90
12436;DHT22;6282;51.440;6.938;2023-07-28T16:26:16;22.60;99.90
12436;DHT22;6282;51.440;6.938;2023-07-28T16:28:44;22.40;99.90
12436;DHT22;6282;51.440;6.938;2023-07-28T16:31:11;22.10;99.90
12436;DHT22;6282;51.440;6.938;2023-07-28T16:36:05;21.60;99.90
12436;DHT22;6282;51.440;6.938;2023-07-28T16:38:32;21.50;99.90
12436;DHT22;6282;51.440;6.938;2023-07-28T16:43:26;21.60;99.90
12436;DHT22;6282;51.440;6.938;2023-07-28T16:45:54;21.50;99.90
12436;DHT22;6282;51.440;6.938;2023-07-28T16:48:21;22.00;99.90
12436;DHT22;6282;51.440;6.938;2023-07-28T16:50:48;22.00;99.90
12436;DHT22;6282;51.440;6.938;2023-07-28T16:55:42;21.70;99.90
12436;DHT22;6282;51.440;6.938;2023-07-28T16:58:09;22.00;99.90
12436;DHT22;6282;51.440;6.938;2023-07-28T17:03:04;21.90;99.90
12436;DHT22;6282;51.440;6.938;2023-07-28T17:05:31;20.60;99.90
12436;DHT22;6282;51.440;6.938;2023-07-28T17:07:58;22.10;99.90
12436;DHT22;6282;51.440;6.938;2023-07-28T17:10:25;22.20;99.90
12436;DHT22;6282;51.440;6.938;2023-07-28T17:12:52;22.40;99.90
12436;DHT22;6282;51.440;6.938;2023-07-28T17:15:20;21.80;99.90
12436;DHT22;6282;51.440;6.938;2023-07-28T17:17:47;22.50;99.90
12436;DHT22;6282;51.440;6.938;2023-07-28T17:20:15;22.00;99.90
12436;DHT22;6282;51.440;6.938;2023-07-28T17:22:42;22.60;99.90
12436;DHT22;6282;51.440;6.938;2023-07-28T17:25:09;21.90;99.90
12436;DHT22;6282;51.440;6.938;2023-07-28T17:27:36;22.50;99.90
12436;DHT22;6282;51.440;6.938;2023-07-28T17:30:03;22.20;99.90
12436;DHT22;6282;51.440;6.938;2023-07-28T17:32:30;22.30;99.90
12436;DHT22;6282;51.440;6.938;2023-07-28T17:34:57;22.60;99.90
12436;DHT22;6282;51.440;6.938;2023-07-28T17:37:25;21.60;99.90
12436;DHT22;6282;51.440;6.938;2023-07-28T17:42:20;22.60;99.90
12436;DHT22;6282;51.440;6.938;2023-07-28T17:47:17;21.90;99.90
12436;DHT22;6282;51.440;6.938;2023-07-28T17:49:46;22.60;99.90
12436;DHT22;6282;51.440;6.938;2023-07-28T17:52:13;22.30;99.90
12436;DHT22;6282;51.440;6.938;2023-07-28T17:54:42;22.00;99.90